Vidalia, GA (30474)

3:00 PM EST on February 14, 2016 (GMT -0500)
Oxley Dr., VHS | | Change Station
CLOSE
Current Station
Personal Weather Station
Location: Vidalia, GA
Elevation: 279 ft
Nearby Weather Stations
Active Advisory: Flood Warning

Elev 279 ft 32.23 °N, 82.44 °W | Updated 1 second ago

Clear
Clear
50.4 °F
Feels Like 50.4 °F
N
2.7
Wind Variable Wind from SW
Gusts 4.9 mph

Today
High -- | Low -- °F
--% Chance of Precip.
Yesterday
High -- | Low -- °F
Precip. -- in
Pressure 30.31 in
Visibility 10.0 miles
Clouds Clear
Dew Point 35 °F
Humidity 56%
Rainfall 0.00 in
Snow Depth Not available.
7:13 AM 6:14 PM
Waxing Crescent, 45% visible
METAR KVDI 141935Z AUTO 12007KT 10SM CLR 10/M01 A3031 RMK AO2
Pressure 30.31 in
Visibility 10.0 miles
Clouds Clear
Dew Point 35 °F
Humidity 56%
Rainfall 0.00 in
Snow Depth Not available.
7:13 AM 6:14 PM
Waxing Crescent, 45% visible
METAR KVDI 141935Z AUTO 12007KT 10SM CLR 10/M01 A3031 RMK AO2

10-Day Weather Forecast

Almanac

Astronomy

Feb. 14, 2016 Rise Set
Actual Time
Civil Twilight
Nautical Twilight
Astronomical Twilight
Moon
Length of Visible Light
Length of Day
Tomorrow will be .
, % of the Moon is Illuminated

Today's Extremes

State Highs State Lows

Community

WunderPhotos

Upload Photos

1,892,879 photos uploaded!

WunderBlog® & News

Nearby

Air Quality

  Air Quality AQ Index Pollutant
Not available.

Snow Depth

Station Depth Elevation

Earthquake Activity

City Distance Mag. Time & Date
Minimum magnitude displayed is 2.5.

Coastal Water Temperatures

Place Temperature

Stations

Nearby Weather Stations

Station Location Temp. Windchill Dew Point Humidity Wind Precip. Elev Updated Type
                   

Watches & Warnings

Flood Warning
Issued: 8:38 AM EST Feb. 14, 2016 – National Weather Service

The Flood Warning continues for
the Altamaha river at Charlotteville.
* Until Tuesday morning... or until the warning is cancelled.
* At 7:45 am Sunday the stage was 14.6 feet.
* Minor flooding is occurring and minor flooding is forecast.
* Flood stage is 13.0 feet.
* Forecast... the river will continue to fall to below flood stage by
early Tuesday morning.
* Impact... at 14.0 feet... minor flooding continues in The Woodlands
along the river upstream and downstream from the gage on the U.S.
Highway 221 bridge. The water covers the low portion and entrance
of towns Bluff Lane by the bridge. The public boat ramp is under
two feet of water. Flood waters expand further into south
Montgomery County around 1.5 miles upstream from the gage. The
water will be one to two feet deep over portions of Three Rivers
Lane... Altamaha River Road and Ogle sandbar Road.





               Fld observed 7am EST / 8am EDT forecast
location stg stg day time Mon Tue Wed Thu Fri

Altamaha
charlottevi 13 14.6 sun 08 am 13.8 12.7 11.6 11.0 10.6




Lat... Lon 3194 8255 3194 8243 3200 8243 3199 8254